Time;durP1;ratioP1;P1;durP2;ratioP2;P2;SDS_P1;SDS_P2;PMS_P1;PMS_P2;Temp;Humidity;BMP_temperature;BMP_pressure;BME280_temperature;BME280_humidity;BME280_pressure;Samples;Min_cycle;Max_cycle;Signal;HPM_P1;HPM_P2
2023/02/23 00:02:08;;;;;;;20.20;15.60;;;7.80;99.90;;;-141.84;82.59;19131.03;5048410;28;20233;-63
2023/02/23 00:04:37;;;;;;;18.77;15.50;;;7.70;99.90;;;-141.84;82.14;19165.56;5048399;28;20732;-64
2023/02/23 00:07:06;;;;;;;19.10;15.03;;;7.70;99.90;;;-141.84;82.43;19165.56;5048955;28;20231;-64
2023/02/23 00:09:35;;;;;;;19.10;14.33;;;7.70;99.90;;;-141.84;83.01;19171.66;5048723;28;20225;-64
2023/02/23 00:12:07;;;;;;;19.67;15.30;;;7.70;99.90;;;-141.84;82.79;19175.72;5048965;28;20575;-64
2023/02/23 00:14:37;;;;;;;19.37;15.40;;;7.70;99.90;;;-141.84;83.00;19149.31;5049270;28;20190;-64
2023/02/23 00:17:13;;;;;;;20.20;14.83;;;7.70;99.90;;;-141.84;82.56;19106.66;5051452;28;20237;-64
2023/02/23 00:19:43;;;;;;;18.20;14.77;;;7.70;99.90;;;-141.84;82.51;19131.03;5052015;28;20585;-64
2023/02/23 00:22:11;;;;;;;19.10;15.30;;;7.70;99.90;;;-141.84;82.83;19122.91;5052647;28;20264;-64
2023/02/23 00:24:42;;;;;;;21.20;15.50;;;7.70;99.90;;;-141.84;82.97;19139.16;5052493;28;20663;-64
2023/02/23 00:27:16;;;;;;;19.17;15.10;;;7.60;99.90;;;-141.84;82.87;19131.03;5052519;28;20198;-64
2023/02/23 00:29:45;;;;;;;18.40;15.50;;;7.60;99.90;;;-141.84;82.77;19151.34;5052894;28;20190;-64
2023/02/23 00:32:19;;;;;;;18.43;14.93;;;7.60;99.90;;;-141.84;83.04;19139.16;5052057;28;20724;-64
2023/02/23 00:34:49;;;;;;;18.43;15.13;;;7.60;99.90;;;-141.84;82.90;19141.19;5052435;28;20308;-64
2023/02/23 00:37:18;;;;;;;18.57;14.63;;;7.60;99.90;;;-141.84;83.21;19135.09;5052112;28;20275;-64
2023/02/23 00:39:46;;;;;;;18.73;14.57;;;7.50;99.90;;;-141.84;83.50;19126.97;5052139;28;20578;-66
2023/02/23 00:42:14;;;;;;;19.83;15.10;;;7.50;99.90;;;-141.84;83.56;19090.38;5052611;28;20210;-65
2023/02/23 00:44:43;;;;;;;19.97;15.07;;;7.50;99.90;;;-141.84;83.98;19096.47;5052590;28;20259;-64
2023/02/23 00:47:11;;;;;;;17.97;14.40;;;7.50;99.90;;;-141.84;84.22;19116.81;5051790;28;20217;-64
2023/02/23 00:49:43;;;;;;;18.50;15.10;;;7.40;99.90;;;-141.84;84.62;19118.84;5051573;28;20232;-63
2023/02/23 00:52:13;;;;;;;18.00;14.40;;;7.40;99.90;;;-141.84;84.84;19135.09;5052175;28;20343;-65
2023/02/23 00:54:42;;;;;;;18.70;14.87;;;7.30;99.90;;;-141.84;85.17;19080.22;5051860;28;20240;-64
2023/02/23 00:57:10;;;;;;;19.60;15.20;;;7.30;99.90;;;-141.84;85.35;19108.69;5051901;28;20285;-65
2023/02/23 00:59:38;;;;;;;19.23;14.37;;;7.30;99.90;;;-141.84;85.57;19084.28;5051931;28;20197;-64
2023/02/23 01:02:06;;;;;;;17.77;14.03;;;7.30;99.90;;;-141.84;85.60;19078.19;5051582;28;20229;-64
2023/02/23 01:04:34;;;;;;;19.27;14.00;;;7.30;99.90;;;-141.84;85.68;19088.34;5051532;28;20720;-65
2023/02/23 01:07:05;;;;;;;17.40;14.10;;;7.30;99.90;;;-141.84;85.82;19092.41;5051830;28;20236;-63
2023/02/23 01:09:34;;;;;;;18.50;14.17;;;7.30;99.90;;;-141.84;86.05;19074.13;5051458;28;20240;-64
2023/02/23 01:12:06;;;;;;;19.77;14.00;;;7.20;99.90;;;-141.84;86.11;19080.22;5051684;28;20220;-65
2023/02/23 01:14:36;;;;;;;17.53;14.00;;;7.20;99.90;;;-141.84;86.23;19070.06;5050483;28;20642;-64
2023/02/23 01:17:06;;;;;;;16.50;13.40;;;7.20;99.90;;;-141.84;86.21;19088.34;5049747;28;20240;-64
2023/02/23 01:19:34;;;;;;;16.67;13.90;;;7.20;99.90;;;-141.84;86.08;19100.53;5031180;28;20282;-64
2023/02/23 01:22:04;;;;;;;15.13;12.87;;;7.20;99.90;;;-141.84;86.23;19070.06;5031714;28;20721;-64
2023/02/23 01:24:32;;;;;;;15.67;12.80;;;7.20;99.90;;;-141.84;86.50;19076.16;5031674;28;20233;-63
2023/02/23 01:27:00;;;;;;;15.57;12.83;;;7.20;99.90;;;-141.84;86.54;19074.13;5030890;28;20206;-64
2023/02/23 01:29:29;;;;;;;15.67;13.20;;;7.20;99.90;;;-141.84;86.73;19057.88;5031983;28;20202;-64
2023/02/23 01:31:57;;;;;;;16.50;13.27;;;7.10;99.90;;;-141.84;87.05;19090.38;5031069;28;20226;-64
2023/02/23 01:34:25;;;;;;;16.60;13.60;;;7.10;99.90;;;-141.84;86.92;19068.03;5031360;28;20307;-64
2023/02/23 01:36:53;;;;;;;16.27;13.73;;;7.10;99.90;;;-141.84;87.24;19074.13;5031148;28;20257;-64
2023/02/23 01:39:23;;;;;;;16.40;13.20;;;7.10;99.90;;;-141.84;87.14;19078.19;5031410;28;20222;-64
2023/02/23 01:41:53;;;;;;;16.50;12.90;;;7.10;99.90;;;-141.84;87.06;19029.44;5031374;28;20914;-65
2023/02/23 01:45:22;;;;;;;16.23;13.03;;;7.10;99.90;;;-141.84;87.03;19068.03;5031127;28;20233;-64
2023/02/23 01:47:55;;;;;;;16.87;13.37;;;7.10;99.90;;;-141.84;86.92;19090.38;5031142;28;20685;-63
2023/02/23 01:50:27;;;;;;;16.57;13.47;;;7.20;99.90;;;-141.84;86.82;19066.00;5031190;28;20570;-63
2023/02/23 01:52:58;;;;;;;16.90;13.37;;;7.20;99.90;;;-141.84;86.84;19043.66;5031193;28;20740;-65
2023/02/23 01:55:28;;;;;;;16.57;13.23;;;7.20;99.90;;;-141.84;86.91;19070.06;5030772;28;20633;-65
2023/02/23 01:58:06;;;;;;;16.40;14.13;;;7.20;99.90;;;-141.84;86.99;19094.44;5031040;28;20241;-64
2023/02/23 02:00:36;;;;;;;17.90;14.37;;;7.20;99.90;;;-141.84;86.80;19068.03;5030891;28;20233;-64
2023/02/23 02:03:12;;;;;;;16.23;13.47;;;7.20;99.90;;;-141.84;86.58;19047.72;5030703;28;20558;-64
2023/02/23 02:05:42;;;;;;;17.43;14.00;;;7.20;99.90;;;-141.84;86.38;19100.53;5031188;28;20195;-64
2023/02/23 02:08:12;;;;;;;18.50;13.80;;;7.20;99.90;;;-141.84;86.04;19043.66;5030597;28;20702;-63
2023/02/23 02:10:45;;;;;;;16.23;13.77;;;7.20;99.90;;;-141.84;86.04;19070.06;5030479;28;20241;-65
2023/02/23 02:13:21;;;;;;;16.83;13.77;;;7.20;99.90;;;-141.84;86.12;19066.00;5030661;28;20280;-65
2023/02/23 02:16:30;;;;;;;17.23;13.90;;;7.20;99.90;;;-141.84;86.27;19041.63;5030305;28;20234;-65
2023/02/23 02:19:53;;;;;;;16.47;13.10;;;7.20;99.90;;;-141.84;86.39;19043.66;5047015;28;20719;-65
2023/02/23 02:22:47;;;;;;;15.87;13.27;;;7.10;99.90;;;-141.84;86.41;19037.56;4968959;28;20228;-63
2023/02/23 02:25:40;;;;;;;18.67;13.63;;;7.10;99.90;;;-141.84;86.53;19021.31;4968929;28;20587;-64
2023/02/23 02:28:42;;;;;;;16.67;13.73;;;7.00;99.90;;;-141.84;86.62;19015.19;5034756;28;20777;-63
2023/02/23 02:32:09;;;;;;;17.57;14.10;;;7.00;99.90;;;-141.84;86.65;19045.69;5049922;28;20599;-63
2023/02/23 02:35:36;;;;;;;16.80;13.37;;;7.10;99.90;;;-141.84;86.39;19070.06;5032358;28;20221;-64
2023/02/23 02:38:25;;;;;;;16.27;13.40;;;7.10;99.90;;;-141.84;86.45;19031.47;5047612;28;20225;-63
2023/02/23 02:41:05;;;;;;;17.67;14.07;;;7.10;99.90;;;-141.84;86.56;19059.91;5049816;28;20237;-64
2023/02/23 02:43:49;;;;;;;16.03;13.80;;;7.10;99.90;;;-141.84;86.26;19017.25;5049845;28;20446;-64
2023/02/23 02:46:25;;;;;;;17.40;14.13;;;7.10;99.90;;;-141.84;86.02;19045.69;5049847;28;20370;-65
2023/02/23 02:49:05;;;;;;;16.93;13.93;;;7.10;99.90;;;-141.84;86.07;19047.72;5049570;28;20256;-65
2023/02/23 02:51:42;;;;;;;16.93;13.40;;;7.20;99.90;;;-141.84;86.09;19025.38;5049772;28;20221;-64
2023/02/23 02:54:24;;;;;;;17.63;13.37;;;7.20;99.90;;;-141.84;86.15;19000.97;5049855;28;20196;-64
2023/02/23 02:56:59;;;;;;;16.93;14.27;;;7.20;99.90;;;-141.84;86.02;19063.97;5050049;28;20229;-63
2023/02/23 04:20:05;;;;;;;17.30;13.60;;;8.10;99.90;;;-141.84;81.38;19145.25;5052453;28;20720;-64
2023/02/23 04:22:34;;;;;;;14.77;12.50;;;8.10;99.90;;;-141.84;81.43;19131.03;5052526;28;20236;-63
2023/02/23 04:25:04;;;;;;;15.10;12.97;;;8.10;99.90;;;-141.84;81.45;19110.72;5052566;28;20221;-63
2023/02/23 04:27:33;;;;;;;15.20;12.37;;;8.10;99.90;;;-141.84;81.30;19171.66;5052890;28;20237;-64
2023/02/23 04:30:02;;;;;;;15.47;12.13;;;8.10;99.90;;;-141.84;81.13;19126.97;5052614;28;20212;-62
2023/02/23 04:32:32;;;;;;;15.13;13.00;;;8.10;99.90;;;-141.84;81.15;19147.28;5052675;28;20296;-63
2023/02/23 04:35:01;;;;;;;17.57;13.67;;;8.10;99.90;;;-141.84;81.14;19181.81;5052313;28;20225;-63
2023/02/23 04:37:29;;;;;;;15.27;13.10;;;8.10;99.90;;;-141.84;81.00;19153.38;5052233;28;20708;-63
2023/02/23 04:39:57;;;;;;;17.53;12.70;;;8.10;99.90;;;-141.84;80.04;19171.66;5052132;28;20225;-63
2023/02/23 04:42:25;;;;;;;16.93;13.47;;;8.20;99.90;;;-141.84;80.48;19143.22;5052205;28;20229;-63
2023/02/23 04:44:53;;;;;;;18.10;12.97;;;8.20;99.90;;;-141.84;80.44;19159.47;5052477;28;20672;-64
2023/02/23 04:47:22;;;;;;;15.10;12.60;;;8.20;99.90;;;-141.84;80.32;19169.63;5051870;28;20226;-64
2023/02/23 04:49:52;;;;;;;18.57;13.60;;;8.20;99.90;;;-141.84;79.38;19175.72;5051861;28;20312;-63
2023/02/23 04:52:20;;;;;;;15.97;12.63;;;8.20;99.90;;;-141.84;79.55;19181.81;5052130;28;20229;-63
2023/02/23 04:54:49;;;;;;;16.37;12.77;;;8.30;99.90;;;-141.84;79.92;19187.91;5052098;28;20229;-64
2023/02/23 04:57:17;;;;;;;16.90;13.30;;;8.30;99.90;;;-141.84;80.26;19171.66;5052042;28;23217;-63
2023/02/23 04:59:45;;;;;;;16.73;13.17;;;8.30;99.90;;;-141.84;80.60;19137.13;5052469;28;20206;-63
2023/02/23 05:02:13;;;;;;;16.43;13.17;;;8.20;99.90;;;-141.84;80.41;19159.47;5050789;28;20709;-63
2023/02/23 05:04:41;;;;;;;16.57;12.80;;;8.30;99.90;;;-141.84;80.29;19157.44;5051459;28;20226;-64
2023/02/23 05:07:11;;;;;;;16.43;13.37;;;8.20;99.90;;;-141.84;80.39;19171.66;5051740;28;20751;-64
2023/02/23 05:09:39;;;;;;;18.57;13.83;;;8.20;99.90;;;-141.84;79.61;19179.78;5051693;28;20233;-62
2023/02/23 05:12:08;;;;;;;16.97;13.03;;;8.30;99.90;;;-141.84;78.88;19181.81;5051764;28;20212;-63
2023/02/23 05:14:37;;;;;;;16.77;12.90;;;8.40;99.90;;;-141.84;79.54;19212.31;5052114;28;20208;-64
2023/02/23 05:17:05;;;;;;;16.47;12.90;;;8.40;99.90;;;-141.84;80.32;19163.53;5051247;28;20249;-63
2023/02/23 05:19:36;;;;;;;20.80;13.57;;;8.30;99.90;;;-141.84;80.63;19167.59;5051367;28;20229;-63
2023/02/23 05:22:05;;;;;;;17.70;13.40;;;8.30;99.90;;;-141.84;80.27;19139.16;5051804;28;20236;-65
2023/02/23 05:24:35;;;;;;;15.73;12.73;;;8.20;99.90;;;-141.84;80.78;19194.03;5051337;28;20259;-64
2023/02/23 05:27:03;;;;;;;15.80;13.00;;;8.20;99.90;;;-141.84;81.40;19159.47;5051197;28;20200;-64
2023/02/23 05:29:31;;;;;;;16.40;13.50;;;8.20;99.90;;;-141.84;81.96;19151.34;5051617;28;20198;-64
2023/02/23 05:32:00;;;;;;;18.07;12.93;;;8.10;99.90;;;-141.84;82.61;19139.16;5051084;28;20649;-62
2023/02/23 05:34:28;;;;;;;17.73;13.53;;;8.10;99.90;;;-141.84;82.95;19131.03;5051090;28;20263;-64
2023/02/23 05:36:56;;;;;;;17.63;14.40;;;8.00;99.90;;;-141.84;82.95;19094.44;5051346;28;20237;-63
2023/02/23 05:39:24;;;;;;;16.63;13.43;;;8.00;99.90;;;-141.84;83.46;19122.91;5050850;28;20735;-64
2023/02/23 05:41:54;;;;;;;19.77;13.50;;;7.90;99.90;;;-141.84;83.90;19090.38;5051780;28;20209;-64
2023/02/23 05:44:22;;;;;;;18.73;14.60;;;7.90;99.90;;;-141.84;83.75;19108.69;5051327;28;20603;-63
2023/02/23 05:46:50;;;;;;;20.20;14.33;;;7.90;99.90;;;-141.84;83.56;19068.03;5051048;28;20630;-63
2023/02/23 05:49:18;;;;;;;18.73;13.83;;;7.90;99.90;;;-141.84;83.77;19102.56;5050724;28;20413;-65
2023/02/23 05:51:47;;;;;;;18.40;14.87;;;7.80;99.90;;;-141.84;83.10;19126.97;5050929;28;20225;-64
2023/02/23 05:54:15;;;;;;;16.80;13.37;;;7.80;99.90;;;-141.84;82.76;19104.59;5051127;28;20217;-64
2023/02/23 05:56:43;;;;;;;18.07;13.90;;;7.90;99.90;;;-141.84;83.08;19110.72;5051608;28;20202;-64
2023/02/23 05:59:13;;;;;;;17.87;13.90;;;7.90;99.90;;;-141.84;83.68;19098.50;5050486;28;20604;-63
2023/02/23 06:01:41;;;;;;;18.63;13.90;;;7.80;99.90;;;-141.84;83.94;19082.25;5050424;28;20607;-64
2023/02/23 06:04:09;;;;;;;20.07;13.97;;;7.80;99.90;;;-141.84;84.39;19084.28;5050404;28;20721;-63
2023/02/23 06:06:37;;;;;;;23.40;14.47;;;7.80;99.90;;;-141.84;84.08;19114.78;5050652;28;20603;-63
2023/02/23 06:09:06;;;;;;;20.33;14.73;;;7.80;99.90;;;-141.84;83.73;19118.84;5050704;28;20197;-64
2023/02/23 06:11:34;;;;;;;16.47;13.63;;;7.80;99.90;;;-141.84;83.70;19110.72;5050922;28;20353;-64
2023/02/23 06:14:02;;;;;;;16.90;13.40;;;7.80;99.90;;;-141.84;83.82;19053.81;5050345;28;20225;-65
2023/02/23 06:16:32;;;;;;;17.40;14.10;;;7.80;99.90;;;-141.84;83.83;19118.84;5050144;28;20246;-66
2023/02/23 06:19:00;;;;;;;16.33;13.47;;;7.80;99.90;;;-141.84;84.16;19098.50;5050137;28;20287;-65
2023/02/23 06:21:28;;;;;;;19.17;14.43;;;7.80;99.90;;;-141.84;84.59;19084.28;5050533;28;20225;-64
2023/02/23 06:23:59;;;;;;;19.07;13.57;;;7.80;99.90;;;-141.84;83.91;19080.22;5050962;28;20213;-63
2023/02/23 06:26:28;;;;;;;19.20;15.40;;;7.80;99.90;;;-141.84;83.32;19147.28;5049945;28;20658;-64
2023/02/23 06:28:56;;;;;;;20.17;14.03;;;7.80;99.90;;;-141.84;82.72;19098.50;5049962;28;20228;-65
2023/02/23 06:31:24;;;;;;;17.30;14.37;;;7.90;99.90;;;-141.84;83.01;19104.59;5049745;28;20229;-65
2023/02/23 06:33:54;;;;;;;19.63;14.47;;;7.80;99.90;;;-141.84;83.56;19094.44;5050199;28;20229;-64
2023/02/23 06:36:22;;;;;;;19.03;15.03;;;7.80;99.90;;;-141.84;83.71;19094.44;5050266;28;20225;-65
2023/02/23 06:38:50;;;;;;;17.43;14.13;;;7.90;99.90;;;-141.84;84.05;19082.25;5050352;28;20596;-64
2023/02/23 06:41:18;;;;;;;17.80;14.20;;;7.90;99.90;;;-141.84;83.15;19114.78;5049795;28;20229;-65
2023/02/23 06:43:47;;;;;;;18.70;13.93;;;7.90;99.90;;;-141.84;83.38;19110.72;5049892;28;20248;-65
2023/02/23 06:46:15;;;;;;;16.70;13.50;;;8.00;99.90;;;-141.84;83.60;19102.56;5049817;28;20604;-65
2023/02/23 06:48:43;;;;;;;16.80;13.67;;;8.00;99.90;;;-141.84;83.75;19137.13;5049582;28;20308;-66
2023/02/23 06:51:13;;;;;;;17.47;14.40;;;8.00;99.90;;;-141.84;83.55;19122.91;5049680;28;20673;-64
2023/02/23 06:53:41;;;;;;;18.70;14.10;;;8.00;99.90;;;-141.84;82.16;19169.63;5050549;28;20205;-65
2023/02/23 06:56:09;;;;;;;17.17;13.70;;;8.10;99.90;;;-141.84;82.15;19124.94;5049635;28;20248;-65
2023/02/23 06:58:39;;;;;;;18.67;14.40;;;8.10;99.90;;;-141.84;82.79;19145.25;5049376;28;20286;-64
2023/02/23 07:01:08;;;;;;;18.87;14.07;;;8.10;99.90;;;-141.84;83.14;19082.25;5049557;28;20232;-65
2023/02/23 07:03:36;;;;;;;17.37;14.47;;;8.10;99.90;;;-141.84;83.41;19118.84;5049384;28;20229;-57
2023/02/23 07:06:05;;;;;;;17.33;14.00;;;8.20;99.90;;;-141.84;83.47;19153.38;5049771;28;20205;-57
2023/02/23 07:08:35;;;;;;;16.80;13.90;;;8.20;99.90;;;-141.84;82.99;19118.84;5050221;28;20202;-58
2023/02/23 07:11:08;;;;;;;18.33;14.63;;;8.30;99.90;;;-141.84;82.61;19122.91;5049134;28;20598;-58
2023/02/23 07:13:37;;;;;;;18.37;13.97;;;8.30;99.90;;;-141.84;81.96;19122.91;5049902;28;20225;-57
2023/02/23 07:16:06;;;;;;;17.50;14.23;;;8.30;99.90;;;-141.84;81.82;19165.56;5049099;28;20662;-56
2023/02/23 07:18:35;;;;;;;18.70;14.17;;;8.40;99.90;;;-141.84;81.37;19187.91;5049026;28;20721;-58
2023/02/23 07:21:03;;;;;;;18.00;13.70;;;8.40;99.90;;;-141.84;80.19;19200.13;5049291;28;20310;-55
2023/02/23 07:23:31;;;;;;;16.83;13.23;;;8.50;99.90;;;-141.84;80.16;19181.81;5050028;28;20204;-58
2023/02/23 07:26:01;;;;;;;17.23;13.97;;;8.50;99.90;;;-141.84;80.46;19163.53;5048685;28;20232;-60
2023/02/23 07:28:29;;;;;;;18.70;13.80;;;8.60;99.90;;;-141.84;80.76;19177.75;5049494;28;20229;-60
2023/02/23 07:30:58;;;;;;;17.83;13.40;;;8.60;99.90;;;-141.84;80.23;19173.69;5049418;28;20589;-57
2023/02/23 07:33:26;;;;;;;19.73;13.43;;;8.70;99.90;;;-141.84;80.25;19179.78;5049378;28;20229;-57
2023/02/23 07:35:54;;;;;;;18.47;13.70;;;8.80;99.90;;;-141.84;79.69;19179.78;5049569;28;20212;-59
2023/02/23 07:38:23;;;;;;;17.43;13.57;;;8.80;99.90;;;-141.84;79.38;19208.25;5049288;28;20684;-58
2023/02/23 07:40:51;;;;;;;16.17;13.43;;;8.80;99.90;;;-141.84;79.08;19206.22;5049181;28;20839;-59
2023/02/23 07:43:21;;;;;;;15.97;13.23;;;8.90;99.90;;;-141.84;78.78;19238.72;5049116;28;20221;-56
2023/02/23 07:45:50;;;;;;;19.97;13.60;;;9.00;99.90;;;-141.84;78.60;19224.50;5049110;28;20308;-58
2023/02/23 07:48:19;;;;;;;15.73;13.53;;;9.00;99.90;;;-141.84;78.34;19261.06;5048913;28;20221;-59
2023/02/23 07:50:47;;;;;;;17.40;13.60;;;9.00;99.90;;;-141.84;77.81;19248.88;5049445;28;20193;-57
2023/02/23 07:53:16;;;;;;;16.40;13.43;;;9.10;99.90;;;-141.84;77.34;19248.88;5049256;28;20295;-59
2023/02/23 07:55:44;;;;;;;19.53;13.73;;;9.10;99.90;;;-141.84;76.57;19257.00;5048852;28;20724;-59
2023/02/23 07:58:13;;;;;;;20.53;13.67;;;9.20;99.90;;;-141.84;76.83;19297.66;5049119;28;20415;-58
2023/02/23 08:00:42;;;;;;;18.50;13.40;;;9.20;99.90;;;-141.84;76.93;19281.41;5049118;28;20271;-59
2023/02/23 08:03:11;;;;;;;15.27;12.80;;;9.30;99.90;;;-141.84;77.48;19271.25;5048894;28;20209;-58
2023/02/23 08:05:39;;;;;;;17.23;14.17;;;9.30;99.90;;;-141.84;77.07;19289.53;5049410;28;20288;-58
2023/02/23 08:08:08;;;;;;;17.47;13.70;;;9.40;99.90;;;-141.84;75.79;19324.06;5048732;28;20692;-59
2023/02/23 08:10:36;;;;;;;15.73;13.07;;;9.50;99.90;;;-141.84;75.58;19313.91;5048903;28;20340;-57
2023/02/23 08:13:05;;;;;;;20.13;17.30;;;9.60;99.90;;;-141.84;75.81;19326.09;5048988;28;20249;-58
2023/02/23 08:15:34;;;;;;;16.87;14.03;;;9.60;99.90;;;-141.84;75.72;19317.97;5048579;28;20225;-58
2023/02/23 08:18:04;;;;;;;18.00;15.20;;;9.60;99.90;;;-141.84;75.77;19301.72;5048786;28;20339;-58
2023/02/23 08:20:32;;;;;;;17.07;15.20;;;9.70;99.90;;;-141.84;74.60;19344.41;5049311;28;20222;-58
2023/02/23 08:23:00;;;;;;;18.67;14.87;;;9.70;99.90;;;-141.84;74.94;19354.56;5049086;28;20224;-59
2023/02/23 08:25:28;;;;;;;20.43;14.83;;;9.80;99.90;;;-141.84;75.15;19332.19;5049013;28;20225;-59
2023/02/23 08:27:58;;;;;;;19.70;14.50;;;9.80;99.90;;;-141.84;74.97;19358.63;5048410;28;20225;-58
2023/02/23 08:30:26;;;;;;;16.10;14.40;;;9.90;99.90;;;-141.84;74.67;19350.50;5048775;28;20309;-59
2023/02/23 08:32:55;;;;;;;15.53;13.90;;;10.00;99.90;;;-141.84;74.75;19391.13;5049062;28;20241;-59
2023/02/23 08:35:24;;;;;;;19.90;14.80;;;10.10;99.90;;;-141.84;74.06;19372.84;5049182;28;20233;-56
2023/02/23 08:37:52;;;;;;;17.47;14.30;;;10.10;99.90;;;-141.84;73.45;19405.34;5051545;28;20225;-60
2023/02/23 08:40:21;;;;;;;17.30;13.33;;;10.20;99.90;;;-141.84;73.36;19405.34;5052099;28;20713;-59
2023/02/23 08:42:50;;;;;;;18.07;15.07;;;10.30;99.90;;;-141.84;72.90;19431.78;5052297;28;20232;-59
2023/02/23 08:45:20;;;;;;;16.90;13.90;;;10.40;99.90;;;-141.84;72.20;19441.94;5052357;28;20225;-58
2023/02/23 08:47:48;;;;;;;17.63;13.83;;;10.50;99.90;;;-141.84;71.71;19454.13;5052256;28;20305;-59
2023/02/23 08:50:16;;;;;;;14.63;12.70;;;10.60;99.90;;;-141.84;71.88;19480.53;5051829;28;20248;-58
2023/02/23 08:52:46;;;;;;;17.53;13.83;;;10.80;99.90;;;-141.84;71.50;19492.75;5051871;28;20225;-59
2023/02/23 08:55:15;;;;;;;17.00;13.93;;;10.80;99.90;;;-141.84;71.70;19486.66;5052106;28;20247;-59
2023/02/23 08:57:43;;;;;;;19.00;15.47;;;10.80;99.90;;;-141.84;71.59;19478.50;5051670;28;20652;-58
2023/02/23 09:00:15;;;;;;;19.30;16.20;;;10.80;99.90;;;-141.84;71.64;19476.47;5051893;28;20246;-59
2023/02/23 09:02:46;;;;;;;18.43;15.93;;;10.90;99.90;;;-141.84;70.57;19496.81;5052416;28;20186;-59
2023/02/23 09:05:16;;;;;;;17.83;15.03;;;11.00;99.90;;;-141.84;70.10;19523.22;5051591;28;20629;-59
2023/02/23 09:07:47;;;;;;;18.60;15.00;;;11.10;99.90;;;-141.84;70.38;19531.34;5051830;28;20282;-60
2023/02/23 09:10:22;;;;;;;20.27;16.90;;;11.20;99.90;;;-141.84;70.11;19504.94;5051812;28;20233;-59
2023/02/23 09:12:51;;;;;;;22.30;16.08;;;11.20;99.90;;;-141.84;69.59;19551.69;5051658;28;20320;-59
2023/02/23 09:15:20;;;;;;;19.70;15.87;;;11.30;99.90;;;-141.84;68.54;19612.63;5051434;28;20221;-60
2023/02/23 09:17:49;;;;;;;21.30;16.73;;;11.50;99.90;;;-141.84;67.72;19596.38;5047353;28;20665;-60
2023/02/23 09:20:18;;;;;;;19.20;15.98;;;11.60;99.90;;;-141.84;67.98;19594.34;5042492;28;20609;-59
2023/02/23 09:22:48;;;;;;;20.73;16.60;;;11.70;99.90;;;-141.84;67.27;19681.75;5051688;28;20236;-60
2023/02/23 09:25:21;;;;;;;20.02;17.13;;;11.80;99.90;;;-141.84;66.56;19637.03;5051366;28;20233;-60
2023/02/23 09:27:50;;;;;;;21.90;17.47;;;11.90;99.90;;;-141.84;66.19;19639.06;5051489;28;20236;-60
2023/02/23 09:30:21;;;;;;;20.70;16.53;;;12.10;99.90;;;-141.84;66.14;19671.56;5051294;28;20232;-61
2023/02/23 09:32:51;;;;;;;18.70;15.95;;;12.30;99.90;;;-141.84;64.54;19740.69;5051199;28;20188;-60
2023/02/23 09:35:23;;;;;;;22.67;17.95;;;12.40;99.90;;;-141.84;64.50;19781.31;5051309;28;20229;-59
2023/02/23 09:37:56;;;;;;;21.33;16.83;;;12.50;99.90;;;-141.84;64.01;19754.91;5050834;28;20597;-59
2023/02/23 09:40:28;;;;;;;19.83;17.38;;;12.50;99.90;;;-141.84;64.41;19803.69;5051329;28;20233;-59
2023/02/23 09:43:05;;;;;;;21.20;17.30;;;12.50;99.90;;;-141.84;64.53;19763.03;5051151;28;20225;-59
2023/02/23 09:45:40;;;;;;;22.45;17.35;;;12.60;99.90;;;-141.84;63.58;19795.53;5051018;28;20764;-59
2023/02/23 09:48:17;;;;;;;21.40;17.90;;;12.70;99.90;;;-141.84;63.47;19789.44;5050674;28;20565;-59
2023/02/23 09:50:50;;;;;;;23.83;18.02;;;12.70;99.90;;;-141.84;64.10;19789.44;5051770;28;20551;-60
2023/02/23 09:53:33;;;;;;;20.25;16.70;;;12.80;99.90;;;-141.84;64.22;19785.38;5050961;28;20608;-60
2023/02/23 09:56:10;;;;;;;21.33;16.77;;;12.70;99.90;;;-141.84;64.05;19761.00;5050968;28;20225;-61
2023/02/23 09:58:39;;;;;;;21.65;17.92;;;12.80;99.90;;;-141.84;63.96;19773.19;5050881;28;20232;-59
2023/02/23 10:01:49;;;;;;;20.00;16.95;;;12.80;99.90;;;-141.84;64.13;19805.72;5050713;28;20246;-59
2023/02/23 10:04:23;;;;;;;22.08;18.23;;;12.80;99.90;;;-141.84;64.13;19781.31;5044355;28;20255;-60
2023/02/23 10:07:00;;;;;;;22.50;18.00;;;12.70;99.90;;;-141.84;64.82;19769.13;5050913;28;20231;-60
2023/02/23 10:09:50;;;;;;;21.92;17.52;;;12.60;99.90;;;-141.84;65.22;19771.16;5050372;28;20739;-60
2023/02/23 10:12:30;;;;;;;23.67;19.02;;;12.60;99.90;;;-141.84;64.20;19779.28;5050530;28;20701;-59
2023/02/23 10:15:14;;;;;;;20.27;17.15;;;12.70;99.90;;;-141.84;64.76;19779.28;5050921;28;20428;-62
2023/02/23 10:17:55;;;;;;;23.63;17.95;;;12.70;99.90;;;-141.84;64.15;19799.63;5050283;28;20324;-61
2023/02/23 10:20:36;;;;;;;23.42;19.42;;;12.80;99.90;;;-141.84;63.71;19813.84;5050411;28;20237;-60
2023/02/23 10:23:08;;;;;;;22.27;18.38;;;12.80;99.90;;;-141.84;64.70;19805.72;5050463;28;20236;-58
2023/02/23 10:25:45;;;;;;;24.83;18.77;;;12.90;99.90;;;-141.84;64.72;19821.97;5050114;28;20776;-59
2023/02/23 10:28:19;;;;;;;24.25;18.10;;;12.90;99.90;;;-141.84;64.61;19813.84;5050482;28;20312;-59
2023/02/23 10:30:49;;;;;;;24.90;19.42;;;13.00;99.90;;;-141.84;64.52;19817.91;5050047;28;20615;-58
2023/02/23 10:33:27;;;;;;;22.73;18.98;;;13.00;99.90;;;-141.84;63.98;19828.06;5050125;28;20590;-59
2023/02/23 10:36:02;;;;;;;22.65;18.83;;;13.10;99.90;;;-141.84;63.03;19909.34;5050466;28;20497;-59
2023/02/23 10:38:40;;;;;;;23.90;19.90;;;13.10;99.90;;;-141.84;63.52;19870.75;5050326;28;20284;-59
2023/02/23 10:41:11;;;;;;;24.40;19.70;;;13.20;99.90;;;-141.84;63.02;19856.53;5049788;28;20701;-58
2023/02/23 10:43:42;;;;;;;24.20;19.23;;;13.20;99.90;;;-141.84;63.61;19850.41;5049894;28;20220;-59
2023/02/23 10:46:20;;;;;;;23.58;20.33;;;13.10;99.90;;;-141.84;63.45;19854.50;5049885;28;20237;-60
2023/02/23 10:48:52;;;;;;;24.98;19.25;;;13.20;99.90;;;-141.84;63.14;19854.50;5049645;28;20229;-59
2023/02/23 10:51:27;;;;;;;23.23;19.88;;;13.20;99.90;;;-141.84;62.79;19909.34;5049880;28;20224;-59
2023/02/23 10:53:57;;;;;;;23.50;18.60;;;13.40;99.90;;;-141.84;63.03;19870.75;5050015;28;20632;-59
2023/02/23 10:56:46;;;;;;;24.88;19.48;;;13.50;99.90;;;-141.84;62.14;19935.78;5049758;28;20216;-60
2023/02/23 10:59:20;;;;;;;25.35;20.65;;;13.60;99.90;;;-141.84;60.89;19935.78;5048747;28;20240;-59
2023/02/23 11:01:49;;;;;;;26.08;20.83;;;13.50;99.90;;;-141.84;60.43;19947.97;5049478;28;20228;-60
2023/02/23 11:04:33;;;;;;;25.77;20.63;;;13.60;99.90;;;-141.84;60.07;19990.66;5049434;28;20229;-59
2023/02/23 11:07:15;;;;;;;26.33;20.63;;;13.80;99.90;;;-141.84;60.85;19923.59;5049727;28;20228;-59
2023/02/23 11:09:44;;;;;;;24.95;19.88;;;13.70;99.90;;;-141.84;60.84;20008.94;5049210;28;20748;-60
2023/02/23 11:12:23;;;;;;;30.17;23.15;;;13.80;99.90;;;-141.84;59.22;20041.47;5049699;28;20186;-59
2023/02/23 11:14:56;;;;;;;29.10;23.20;;;13.90;99.90;;;-141.84;58.81;20019.13;5049809;28;20264;-58
2023/02/23 11:17:33;;;;;;;27.33;23.50;;;13.90;99.90;;;-141.84;59.91;19960.16;5052205;28;20741;-58
2023/02/23 11:20:07;;;;;;;27.15;22.90;;;13.80;99.90;;;-141.84;59.73;19976.44;5069151;28;20731;-59
2023/02/23 11:22:40;;;;;;;30.50;23.25;;;13.80;99.90;;;-141.84;59.88;19986.59;5069419;28;20247;-60
2023/02/23 11:25:21;;;;;;;28.45;23.08;;;13.80;99.90;;;-141.84;59.88;19976.44;5069152;28;20231;-57
2023/02/23 11:27:52;;;;;;;27.52;22.95;;;13.80;99.90;;;-141.84;60.44;19931.72;5069093;28;20233;-59
2023/02/23 11:30:24;;;;;;;28.80;22.30;;;13.70;99.90;;;-141.84;60.82;19968.31;5069017;28;20779;-59
2023/02/23 11:32:56;;;;;;;27.40;22.45;;;13.80;99.90;;;-141.84;60.35;19974.41;5069683;28;20211;-61
2023/02/23 11:35:32;;;;;;;30.25;23.45;;;13.80;99.90;;;-141.84;60.12;19966.28;5069392;28;20216;-58
2023/02/23 11:38:14;;;;;;;30.85;23.95;;;13.80;99.90;;;-141.84;60.08;19996.75;5069066;28;20227;-59
2023/02/23 11:40:42;;;;;;;27.98;23.75;;;13.70;99.90;;;-141.84;59.46;20021.16;5068915;28;20232;-60